createdAt,value
2023-05-02T00:00:24.470Z,90.7
2023-05-02T00:12:24.486Z,90.9
2023-05-02T00:24:24.431Z,91.8
2023-05-02T00:36:24.549Z,91.8
2023-05-02T00:48:24.422Z,92.3
2023-05-02T01:00:25.241Z,92.6
2023-05-02T01:12:24.531Z,92.5
2023-05-02T01:24:24.513Z,92.8
2023-05-02T01:36:24.487Z,93.4
2023-05-02T01:48:24.452Z,93.5
2023-05-02T02:00:24.418Z,93.6
2023-05-02T02:12:24.528Z,93.6
2023-05-02T02:24:24.505Z,94.0
2023-05-02T02:36:24.532Z,94.2
2023-05-02T02:48:24.532Z,93.9
2023-05-02T03:00:24.554Z,93.8
2023-05-02T03:12:24.491Z,93.8
2023-05-02T03:24:24.544Z,93.7
2023-05-02T03:36:24.427Z,93.7
2023-05-02T03:48:24.529Z,92.9
2023-05-02T04:00:24.530Z,92.9
2023-05-02T04:12:24.420Z,93.2
2023-05-02T04:24:24.524Z,93.6
2023-05-02T04:36:24.473Z,94.6
2023-05-02T04:48:24.511Z,94.9
2023-05-02T05:00:25.017Z,95.3
2023-05-02T05:12:24.466Z,95.3
2023-05-02T05:24:24.476Z,96.1
2023-05-02T05:36:24.525Z,96.6
2023-05-02T05:48:24.500Z,95.3
2023-05-02T06:00:24.526Z,95.2
2023-05-02T06:12:24.436Z,94.1
2023-05-02T06:24:24.534Z,94.2
2023-05-02T06:36:24.519Z,94.2
2023-05-02T06:48:24.462Z,94.7
2023-05-02T07:00:24.480Z,94.9
2023-05-02T07:12:24.521Z,95.1
2023-05-02T07:24:24.551Z,93.1
2023-05-02T07:36:24.534Z,93.3
2023-05-02T07:48:26.190Z,90.0
2023-05-02T08:00:24.516Z,86.1
2023-05-02T08:12:24.524Z,85.0
2023-05-02T08:24:24.416Z,79.7
2023-05-02T08:36:24.440Z,79.6
2023-05-02T08:48:24.523Z,80.3
2023-05-02T09:00:24.429Z,76.5
2023-05-02T09:12:24.523Z,77.0
2023-05-02T09:24:24.530Z,80.8
2023-05-02T09:36:24.509Z,89.9
2023-05-02T09:48:24.532Z,89.4
2023-05-02T10:00:24.544Z,80.9
2023-05-02T10:12:24.517Z,83.2
2023-05-02T10:24:24.546Z,80.0
2023-05-02T10:36:24.444Z,75.3
2023-05-02T10:48:24.485Z,74.6
2023-05-02T11:00:24.439Z,75.6
2023-05-02T11:12:24.430Z,74.8
2023-05-02T11:24:24.423Z,71.2
2023-05-02T11:36:24.511Z,72.1
2023-05-02T11:48:24.426Z,74.2
2023-05-02T12:00:24.509Z,75.5
2023-05-02T12:12:24.428Z,73.9
2023-05-02T12:24:24.434Z,69.4
2023-05-02T12:36:24.419Z,70.8
2023-05-02T12:48:24.550Z,68.9
2023-05-02T13:00:24.460Z,67.0
2023-05-02T13:12:24.429Z,65.7
2023-05-02T13:24:24.543Z,64.8
2023-05-02T13:36:24.538Z,66.3
2023-05-02T13:48:24.424Z,63.8
2023-05-02T14:00:24.526Z,62.5
2023-05-02T14:12:24.421Z,63.9
2023-05-02T14:24:24.447Z,61.4
2023-05-02T14:36:24.451Z,58.5
2023-05-02T14:48:24.533Z,60.5
2023-05-02T15:00:24.511Z,58.2
2023-05-02T15:12:24.539Z,57.1
2023-05-02T15:24:24.524Z,60.0
2023-05-02T15:36:24.429Z,61.3
2023-05-02T15:48:24.548Z,56.2
2023-05-02T16:00:24.478Z,57.7
2023-05-02T16:12:24.417Z,57.9
2023-05-02T16:24:24.551Z,54.1
2023-05-02T16:36:24.432Z,55.0
2023-05-02T16:48:24.434Z,55.1
2023-05-02T17:00:24.536Z,55.5
2023-05-02T17:12:24.532Z,54.5
2023-05-02T17:24:24.545Z,55.6
2023-05-02T17:36:24.490Z,55.2
2023-05-02T17:48:24.669Z,56.1
2023-05-02T18:00:24.435Z,55.5
2023-05-02T18:12:24.416Z,55.1
2023-05-02T18:24:24.474Z,57.0
2023-05-02T18:36:24.452Z,58.5
2023-05-02T18:48:24.551Z,59.9
2023-05-02T19:00:24.538Z,60.3
2023-05-02T19:12:24.515Z,60.3
2023-05-02T19:24:24.551Z,60.9
2023-05-02T19:36:24.526Z,62.5
2023-05-02T19:48:24.603Z,64.5
2023-05-02T20:00:24.516Z,65.6
2023-05-02T20:12:24.531Z,67.3
2023-05-02T20:24:24.420Z,67.3
2023-05-02T20:36:24.529Z,66.1
2023-05-02T20:48:24.463Z,66.2
2023-05-02T21:00:24.551Z,68.1
2023-05-02T21:12:24.549Z,70.1
2023-05-02T21:24:24.434Z,68.3
2023-05-02T21:36:24.536Z,68.4
2023-05-02T21:48:24.536Z,69.1
2023-05-02T22:00:24.520Z,69.3
2023-05-02T22:12:24.519Z,68.1
2023-05-02T22:24:24.549Z,68.8
2023-05-02T22:36:24.423Z,69.0
2023-05-02T22:48:24.423Z,69.5
2023-05-02T23:00:24.440Z,71.0
2023-05-02T23:12:24.539Z,71.0
2023-05-02T23:24:24.505Z,79.5
2023-05-02T23:36:24.533Z,74.9
2023-05-02T23:48:24.438Z,73.6
